Time;durP1;ratioP1;P1;durP2;ratioP2;P2;SDS_P1;SDS_P2;PMS_P1;PMS_P2;Temp;Humidity;BMP_temperature;BMP_pressure;BME280_temperature;BME280_humidity;BME280_pressure;Samples;Min_cycle;Max_cycle;Signal;HPM_P1;HPM_P2
2022/04/14 00:00:03;;;;;;;10.07;6.10;;;14.70;84.40;;;;;;5034340;28;20568;-55
2022/04/14 00:02:28;;;;;;;8.53;5.40;;;14.70;84.10;;;;;;5033102;28;20200;-54
2022/04/14 00:04:54;;;;;;;5.83;3.97;;;14.60;84.30;;;;;;5034445;28;20248;-54
2022/04/14 00:07:20;;;;;;;9.30;5.07;;;14.60;84.10;;;;;;5034127;28;20196;-52
2022/04/14 00:09:45;;;;;;;8.47;5.30;;;14.50;84.30;;;;;;5034230;28;20735;-53
2022/04/14 00:12:11;;;;;;;6.00;3.57;;;14.50;84.60;;;;;;5034184;28;20671;-56
2022/04/14 00:14:37;;;;;;;5.30;3.87;;;14.40;85.40;;;;;;5034595;28;20198;-57
2022/04/14 00:17:02;;;;;;;3.93;3.43;;;14.50;85.90;;;;;;5034304;28;20274;-57
2022/04/14 00:19:28;;;;;;;4.87;3.70;;;14.40;85.30;;;;;;5034092;28;20223;-59
2022/04/14 00:21:53;;;;;;;5.73;4.07;;;14.40;85.40;;;;;;5034072;28;20213;-56
2022/04/14 00:24:19;;;;;;;5.83;4.10;;;14.30;85.80;;;;;;5032659;28;20788;-53
2022/04/14 00:26:44;;;;;;;6.67;4.90;;;14.30;86.20;;;;;;5033865;28;20570;-56
2022/04/14 00:29:11;;;;;;;6.07;4.63;;;14.30;86.40;;;;;;5034164;28;20185;-55
2022/04/14 00:31:37;;;;;;;7.67;5.07;;;14.30;86.50;;;;;;5033891;28;20196;-52
2022/04/14 00:34:02;;;;;;;5.00;4.53;;;14.30;86.70;;;;;;5033168;28;20177;-55
2022/04/14 00:36:28;;;;;;;7.20;4.90;;;14.30;86.60;;;;;;5033622;28;20251;-56
2022/04/14 00:38:54;;;;;;;6.17;4.60;;;14.20;87.00;;;;;;5033957;28;20236;-54
2022/04/14 00:41:19;;;;;;;5.53;4.20;;;14.10;87.30;;;;;;5033894;28;20172;-52
2022/04/14 00:43:51;;;;;;;4.83;4.30;;;14.10;87.40;;;;;;5033262;28;20182;-54
2022/04/14 00:46:17;;;;;;;6.37;4.30;;;14.00;87.70;;;;;;5033534;28;20186;-54
2022/04/14 00:48:43;;;;;;;6.43;4.43;;;14.00;87.80;;;;;;5033359;28;20195;-55
2022/04/14 00:51:08;;;;;;;5.00;4.50;;;14.00;88.00;;;;;;5033289;28;20605;-53
2022/04/14 00:53:34;;;;;;;8.20;4.07;;;13.90;88.50;;;;;;5033021;28;20712;-56
2022/04/14 00:56:00;;;;;;;6.27;4.37;;;13.90;89.30;;;;;;5033355;28;20196;-55
2022/04/14 00:58:26;;;;;;;3.90;3.50;;;13.80;89.90;;;;;;5033137;28;20278;-53
2022/04/14 01:00:52;;;;;;;4.33;3.83;;;13.80;90.20;;;;;;5033282;28;20174;-52
2022/04/14 01:03:18;;;;;;;4.87;4.33;;;13.70;90.30;;;;;;5032825;28;20186;-56
2022/04/14 01:05:46;;;;;;;6.10;4.97;;;13.60;90.50;;;;;;5033125;28;20226;-52
2022/04/14 01:08:16;;;;;;;5.00;4.50;;;13.60;91.10;;;;;;5032917;28;20191;-53
2022/04/14 01:10:46;;;;;;;6.93;4.70;;;13.60;91.00;;;;;;5033114;28;20255;-52
2022/04/14 01:13:11;;;;;;;5.50;4.40;;;13.60;91.10;;;;;;5032612;28;20672;-52
2022/04/14 01:15:37;;;;;;;4.00;3.60;;;13.50;91.30;;;;;;5032953;28;20179;-53
2022/04/14 01:18:03;;;;;;;6.03;4.07;;;13.50;91.50;;;;;;5032668;28;20218;-53
2022/04/14 01:20:28;;;;;;;4.43;3.90;;;13.50;92.00;;;;;;5032827;28;20280;-56
2022/04/14 01:22:59;;;;;;;4.87;3.90;;;13.30;92.30;;;;;;5032681;28;20290;-54
2022/04/14 01:25:25;;;;;;;4.40;4.00;;;13.20;92.70;;;;;;5032836;28;20257;-54
2022/04/14 01:27:51;;;;;;;5.20;3.73;;;13.10;92.70;;;;;;5032658;28;20285;-55
2022/04/14 01:30:17;;;;;;;5.90;3.90;;;13.10;92.90;;;;;;5032739;28;20210;-55
2022/04/14 01:32:42;;;;;;;6.03;4.07;;;13.10;93.10;;;;;;5032162;28;20330;-57
2022/04/14 01:35:08;;;;;;;5.40;3.90;;;13.10;93.30;;;;;;5032636;28;20284;-56
2022/04/14 01:37:34;;;;;;;4.17;3.77;;;13.00;93.40;;;;;;5032505;28;20188;-52
2022/04/14 01:39:59;;;;;;;4.53;3.97;;;13.00;93.60;;;;;;5032600;28;20290;-55
2022/04/14 01:42:25;;;;;;;4.40;3.87;;;12.90;94.00;;;;;;5032127;28;20203;-57
2022/04/14 01:44:50;;;;;;;4.90;3.90;;;12.90;94.00;;;;;;5031837;28;20293;-56
2022/04/14 01:47:16;;;;;;;4.93;3.90;;;12.90;94.00;;;;;;5032238;28;20723;-53
2022/04/14 01:49:42;;;;;;;4.53;3.80;;;12.90;94.20;;;;;;5032344;28;20179;-55
2022/04/14 01:52:07;;;;;;;5.77;4.30;;;12.80;94.40;;;;;;5032153;28;20180;-57
2022/04/14 01:54:33;;;;;;;4.50;4.03;;;12.90;94.60;;;;;;5032016;28;20214;-57
2022/04/14 01:56:59;;;;;;;7.20;4.30;;;12.80;94.70;;;;;;5032271;28;20200;-53
2022/04/14 01:59:24;;;;;;;5.77;4.23;;;12.70;94.90;;;;;;5032156;28;20207;-54
2022/04/14 02:01:50;;;;;;;4.10;3.70;;;12.70;95.00;;;;;;5032110;28;20172;-55
2022/04/14 02:04:15;;;;;;;6.37;4.27;;;12.70;95.10;;;;;;5031819;28;20641;-55
2022/04/14 02:06:41;;;;;;;4.73;3.93;;;12.70;95.20;;;;;;5032065;28;20168;-55
2022/04/14 02:09:07;;;;;;;4.03;3.63;;;12.70;95.10;;;;;;5032229;28;20230;-52
2022/04/14 02:11:32;;;;;;;3.90;3.50;;;12.70;95.10;;;;;;5032057;28;20172;-56
2022/04/14 02:13:58;;;;;;;5.53;3.90;;;12.70;95.20;;;;;;5031707;28;20184;-51
2022/04/14 02:16:23;;;;;;;7.10;3.93;;;12.60;95.20;;;;;;5031868;28;20175;-56
2022/04/14 02:18:49;;;;;;;5.57;3.90;;;12.50;95.40;;;;;;5031795;28;20615;-56
2022/04/14 02:21:14;;;;;;;4.97;4.33;;;12.50;95.30;;;;;;5031887;28;20221;-56
2022/04/14 02:23:40;;;;;;;4.30;3.90;;;12.50;95.30;;;;;;5031545;28;20183;-55
2022/04/14 02:26:06;;;;;;;4.50;3.93;;;12.50;95.30;;;;;;5032182;28;20534;-52
2022/04/14 02:28:31;;;;;;;5.20;4.10;;;12.50;95.40;;;;;;5031777;28;20183;-55
2022/04/14 02:30:57;;;;;;;4.97;4.00;;;12.40;95.80;;;;;;5031832;28;20167;-52
2022/04/14 02:33:23;;;;;;;4.93;3.70;;;12.40;96.00;;;;;;5031367;28;20168;-54
2022/04/14 02:35:48;;;;;;;4.10;3.70;;;12.30;95.80;;;;;;5031761;28;20179;-56
2022/04/14 02:38:14;;;;;;;6.00;3.70;;;12.30;96.00;;;;;;5031676;28;20684;-55
2022/04/14 02:40:39;;;;;;;5.07;4.00;;;12.20;96.10;;;;;;5031742;28;20376;-52
2022/04/14 02:43:05;;;;;;;4.30;3.90;;;12.20;96.50;;;;;;5031403;28;20172;-56
2022/04/14 02:45:30;;;;;;;5.33;4.10;;;12.20;96.50;;;;;;5031629;28;20173;-57
2022/04/14 02:47:56;;;;;;;5.60;3.80;;;12.20;96.50;;;;;;5031551;28;20202;-57
2022/04/14 02:50:22;;;;;;;4.13;3.50;;;12.10;96.60;;;;;;5031673;28;20206;-53
2022/04/14 02:52:48;;;;;;;4.77;3.57;;;12.10;96.70;;;;;;5031301;28;20744;-53
2022/04/14 02:55:14;;;;;;;4.20;3.50;;;12.10;96.90;;;;;;5031821;28;20190;-55
2022/04/14 02:57:41;;;;;;;3.90;3.43;;;12.00;97.30;;;;;;5035495;28;20200;-53
2022/04/14 03:00:09;;;;;;;5.17;4.67;;;11.80;97.50;;;;;;5035400;28;20205;-57
2022/04/14 03:02:35;;;;;;;6.97;5.23;;;11.80;97.90;;;;;;5035049;28;20585;-57
2022/04/14 03:05:02;;;;;;;8.37;6.20;;;11.80;98.00;;;;;;5035455;28;20225;-57
2022/04/14 03:07:28;;;;;;;6.17;5.57;;;11.80;98.10;;;;;;5035303;28;20188;-56
2022/04/14 03:09:54;;;;;;;6.50;5.07;;;13.60;98.90;;;;;;5035406;28;20645;-56
2022/04/14 03:12:19;;;;;;;5.97;4.73;;;11.80;97.90;;;;;;5035020;28;20656;-56
2022/04/14 03:14:47;;;;;;;4.87;4.40;;;11.80;98.30;;;;;;5035630;28;20594;-57
2022/04/14 03:17:12;;;;;;;4.63;4.03;;;11.80;98.30;;;;;;5035148;28;20195;-58
2022/04/14 03:19:38;;;;;;;4.80;4.27;;;11.70;98.40;;;;;;5035298;28;20559;-54
2022/04/14 03:22:04;;;;;;;5.17;4.10;;;11.80;98.60;;;;;;5035014;28;20164;-58
2022/04/14 03:24:30;;;;;;;5.63;4.37;;;11.70;98.50;;;;;;5034867;28;20526;-57
2022/04/14 03:26:55;;;;;;;4.30;3.90;;;11.70;98.50;;;;;;5034963;28;20198;-57
2022/04/14 03:29:21;;;;;;;4.73;4.23;;;11.60;98.70;;;;;;5034936;28;20175;-56
2022/04/14 03:31:46;;;;;;;5.07;4.37;;;11.60;99.20;;;;;;5034892;28;20171;-57
2022/04/14 03:34:12;;;;;;;6.30;4.70;;;11.50;99.10;;;;;;5034477;28;20182;-56
2022/04/14 03:36:37;;;;;;;4.90;4.40;;;11.50;99.00;;;;;;5034768;28;20176;-57
2022/04/14 03:39:04;;;;;;;6.10;5.10;;;11.50;99.00;;;;;;5034722;28;20245;-55
2022/04/14 03:41:29;;;;;;;6.93;4.53;;;11.50;99.20;;;;;;5034828;28;20619;-57
2022/04/14 03:43:55;;;;;;;7.47;4.40;;;11.50;99.40;;;;;;5034314;28;20267;-57
2022/04/14 03:46:20;;;;;;;6.33;4.93;;;11.40;99.50;;;;;;5034613;28;20203;-56
2022/04/14 03:48:47;;;;;;;5.93;5.33;;;11.40;99.80;;;;;;5034535;28;20202;-58
2022/04/14 03:51:14;;;;;;;5.83;5.10;;;11.40;99.90;;;;;;5034569;28;20176;-57
2022/04/14 03:53:40;;;;;;;5.13;4.70;;;12.60;99.90;;;;;;5034183;28;20168;-56
2022/04/14 03:56:06;;;;;;;5.97;5.07;;;11.40;99.90;;;;;;5034549;28;20185;-56
2022/04/14 03:58:31;;;;;;;5.23;4.50;;;11.40;99.90;;;;;;5034309;28;20668;-54
2022/04/14 04:00:57;;;;;;;5.37;4.60;;;11.40;99.90;;;;;;5034327;28;20174;-57
2022/04/14 04:03:22;;;;;;;5.53;4.77;;;11.40;99.90;;;;;;5033996;28;20171;-52
2022/04/14 04:05:48;;;;;;;5.13;4.60;;;11.40;99.90;;;;;;5034267;28;20179;-53
2022/04/14 04:08:13;;;;;;;6.53;5.17;;;11.30;99.90;;;;;;5033641;28;20188;-53
2022/04/14 04:10:39;;;;;;;11.27;5.53;;;11.30;99.90;;;;;;5034215;28;20225;-52
2022/04/14 04:13:05;;;;;;;7.40;5.40;;;11.30;99.90;;;;;;5033843;28;20179;-53
2022/04/14 04:15:30;;;;;;;6.90;6.20;;;11.20;99.90;;;;;;5032855;28;20234;-52
2022/04/14 04:17:56;;;;;;;8.30;5.57;;;11.20;99.90;;;;;;5033881;28;20215;-53
2022/04/14 04:20:22;;;;;;;7.73;6.43;;;11.00;99.90;;;;;;5033975;28;20601;-52
2022/04/14 04:22:47;;;;;;;7.53;5.43;;;10.90;99.90;;;;;;5033678;28;20171;-52
2022/04/14 04:25:13;;;;;;;6.80;5.60;;;10.90;99.90;;;;;;5033934;28;20174;-53
2022/04/14 04:27:38;;;;;;;9.23;5.30;;;10.90;99.90;;;;;;5035129;28;20266;-57
2022/04/14 04:30:05;;;;;;;6.87;5.20;;;10.90;99.90;;;;;;5033844;28;20175;-53
2022/04/14 04:32:33;;;;;;;6.73;5.60;;;10.80;99.90;;;;;;5033507;28;20176;-53
2022/04/14 04:35:08;;;;;;;7.23;5.30;;;10.80;99.90;;;;;;5033745;28;20175;-55
2022/04/14 04:37:34;;;;;;;5.77;5.17;;;10.90;99.90;;;;;;5033786;28;20628;-52
2022/04/14 04:39:59;;;;;;;8.50;4.87;;;10.90;99.90;;;;;;5032278;28;20235;-58
2022/04/14 04:42:25;;;;;;;5.40;4.90;;;10.90;99.90;;;;;;5024335;28;20181;-52
2022/04/14 04:44:50;;;;;;;7.27;6.27;;;10.90;99.90;;;;;;5032321;28;20724;-52
2022/04/14 04:47:16;;;;;;;6.83;6.13;;;10.90;99.90;;;;;;5022222;28;20721;-53
2022/04/14 04:49:42;;;;;;;9.90;7.73;;;10.90;99.90;;;;;;5033625;28;20255;-55
2022/04/14 04:52:08;;;;;;;8.07;6.20;;;10.90;99.90;;;;;;5023298;28;20211;-56
2022/04/14 04:54:34;;;;;;;7.97;6.90;;;10.90;99.90;;;;;;5023536;28;20181;-56
2022/04/14 04:57:00;;;;;;;8.93;8.03;;;11.00;99.90;;;;;;5013290;28;20207;-56
2022/04/14 04:59:25;;;;;;;7.63;6.93;;;11.00;99.90;;;;;;5029391;28;20215;-54
2022/04/14 05:01:51;;;;;;;8.43;7.07;;;11.00;99.90;;;;;;5033103;28;20176;-53
2022/04/14 05:04:17;;;;;;;7.50;6.70;;;11.10;99.90;;;;;;5032897;28;20167;-56
2022/04/14 05:06:43;;;;;;;6.60;5.90;;;11.10;99.90;;;;;;5033028;28;20203;-56
2022/04/14 05:09:08;;;;;;;6.20;5.60;;;11.20;99.90;;;;;;5033037;28;20179;-56
2022/04/14 05:11:34;;;;;;;6.47;5.30;;;11.20;99.90;;;;;;5017180;28;20188;-52
2022/04/14 05:14:00;;;;;;;7.10;5.57;;;11.20;99.90;;;;;;5012720;28;20185;-55
2022/04/14 05:16:26;;;;;;;6.53;5.57;;;;;;;;;;5013083;28;20192;-56
2022/04/14 05:18:51;;;;;;;6.60;5.67;;;11.50;99.90;;;;;;5012242;28;20208;-52
2022/04/14 05:21:17;;;;;;;6.87;6.13;;;11.40;99.90;;;;;;5013959;28;20188;-56
2022/04/14 05:23:42;;;;;;;6.70;6.00;;;11.30;99.90;;;;;;5012701;28;20172;-55
2022/04/14 05:26:08;;;;;;;8.17;7.00;;;11.30;99.90;;;;;;5011873;28;20230;-53
2022/04/14 05:28:35;;;;;;;8.90;7.97;;;11.40;99.90;;;;;;5017480;28;20192;-52
2022/04/14 05:31:00;;;;;;;11.00;7.37;;;11.50;99.90;;;;;;5020349;28;20177;-57
2022/04/14 05:33:26;;;;;;;7.53;6.83;;;11.40;99.90;;;;;;5019403;28;20168;-53
2022/04/14 05:35:52;;;;;;;7.80;6.20;;;11.40;99.90;;;;;;5023741;28;20204;-55
2022/04/14 05:38:17;;;;;;;6.60;5.97;;;11.40;99.90;;;;;;5012757;28;20189;-55
2022/04/14 05:40:45;;;;;;;6.77;6.07;;;11.50;99.90;;;;;;5023739;28;20206;-56
2022/04/14 05:43:14;;;;;;;6.70;6.00;;;11.60;99.90;;;;;;5032085;28;20183;-55
2022/04/14 05:45:40;;;;;;;8.83;6.13;;;11.70;99.90;;;;;;5032253;28;20172;-57
2022/04/14 05:48:07;;;;;;;7.07;5.73;;;;;;;;;;5032318;28;20595;-56
2022/04/14 05:50:32;;;;;;;6.50;5.90;;;11.90;99.90;;;;;;5032249;28;20584;-54
2022/04/14 05:52:58;;;;;;;7.83;6.50;;;12.00;99.90;;;;;;5019917;28;20172;-56
2022/04/14 05:55:23;;;;;;;8.30;6.27;;;12.10;99.90;;;;;;5012345;28;20244;-53
2022/04/14 05:57:49;;;;;;;8.33;7.53;;;12.20;99.90;;;;;;5012357;28;20192;-56
2022/04/14 06:00:15;;;;;;;8.70;7.83;;;12.20;99.90;;;;;;5012195;28;20200;-56
2022/04/14 06:02:40;;;;;;;7.97;7.20;;;12.40;99.90;;;;;;5012034;28;20180;-56
2022/04/14 06:05:07;;;;;;;13.13;8.07;;;12.40;99.90;;;;;;5012408;28;20251;-54
2022/04/14 06:07:32;;;;;;;8.47;7.57;;;12.40;99.90;;;;;;5012338;28;20291;-58
2022/04/14 06:09:58;;;;;;;7.70;6.20;;;12.40;99.90;;;;;;5012555;28;20211;-58
2022/04/14 06:12:23;;;;;;;8.83;5.47;;;12.50;99.90;;;;;;5011986;28;20287;-57
2022/04/14 06:14:50;;;;;;;6.23;5.63;;;12.40;99.90;;;;;;5012427;28;20181;-57
2022/04/14 06:17:15;;;;;;;6.17;5.37;;;12.50;99.90;;;;;;5018738;28;20573;-57
2022/04/14 06:19:41;;;;;;;5.90;5.27;;;12.60;99.90;;;;;;5022552;28;20222;-57
2022/04/14 06:22:06;;;;;;;5.87;5.30;;;13.70;99.90;;;;;;5031278;28;20175;-57
2022/04/14 06:24:32;;;;;;;7.27;5.50;;;12.70;99.90;;;;;;5031315;28;20180;-56
2022/04/14 06:26:57;;;;;;;6.07;5.40;;;12.80;99.90;;;;;;5031586;28;20195;-56
2022/04/14 06:29:23;;;;;;;6.77;6.07;;;12.90;99.90;;;;;;5031616;28;20191;-55
2022/04/14 06:31:48;;;;;;;5.87;5.27;;;13.00;99.90;;;;;;5031313;28;20188;-56
2022/04/14 06:34:14;;;;;;;7.10;6.30;;;13.10;99.90;;;;;;5031230;28;20592;-54
2022/04/14 06:36:39;;;;;;;6.63;5.37;;;13.20;99.90;;;;;;5028081;28;20559;-57
2022/04/14 06:39:12;;;;;;;6.40;5.80;;;13.30;99.90;;;;;;5029668;28;20227;-57
2022/04/14 06:41:40;;;;;;;6.10;5.50;;;13.30;99.90;;;;;;5018581;28;20191;-57
2022/04/14 06:44:06;;;;;;;6.07;5.47;;;13.40;99.90;;;;;;5016417;28;20590;-52
2022/04/14 06:46:32;;;;;;;12.77;5.97;;;13.30;99.90;;;;;;5011926;28;20168;-55
2022/04/14 06:48:57;;;;;;;5.57;5.07;;;13.50;99.90;;;;;;5012004;28;20257;-57
2022/04/14 06:51:23;;;;;;;7.37;5.43;;;13.60;99.90;;;;;;5011134;28;20703;-57
2022/04/14 06:53:49;;;;;;;6.37;5.60;;;13.60;99.90;;;;;;5016836;28;20171;-54
2022/04/14 06:56:14;;;;;;;6.13;5.30;;;13.70;99.90;;;;;;5051185;28;20217;-57
2022/04/14 06:58:42;;;;;;;5.80;5.00;;;13.70;99.90;;;;;;5051460;28;20196;-55
2022/04/14 07:01:08;;;;;;;5.33;4.83;;;13.70;99.90;;;;;;5051360;28;20213;-56
2022/04/14 07:03:34;;;;;;;6.30;5.70;;;13.80;99.90;;;;;;5051133;28;20179;-55
2022/04/14 07:06:00;;;;;;;6.80;4.77;;;13.90;99.90;;;;;;5051250;28;20195;-58
2022/04/14 07:08:26;;;;;;;6.10;5.50;;;14.00;99.90;;;;;;5051376;28;20201;-56
2022/04/14 07:10:52;;;;;;;5.23;4.73;;;14.00;99.90;;;;;;5051406;28;20175;-54
2022/04/14 07:13:18;;;;;;;7.00;5.33;;;14.00;99.90;;;;;;5051035;28;20169;-57
2022/04/14 07:15:45;;;;;;;6.00;5.27;;;14.10;99.90;;;;;;5050120;28;20177;-57
2022/04/14 07:18:10;;;;;;;7.80;4.83;;;14.20;99.90;;;;;;5049451;28;20248;-55
2022/04/14 07:20:37;;;;;;;5.40;4.40;;;14.40;99.90;;;;;;5049313;28;20232;-57
2022/04/14 07:23:03;;;;;;;5.50;4.80;;;14.50;99.90;;;;;;5049664;28;20532;-56
2022/04/14 07:25:32;;;;;;;6.10;5.17;;;14.60;99.90;;;;;;5049657;28;20703;-54
2022/04/14 07:27:59;;;;;;;7.77;5.10;;;14.60;99.90;;;;;;5049360;28;20191;-56
2022/04/14 07:30:26;;;;;;;6.50;4.90;;;14.60;99.90;;;;;;5049344;28;20202;-57
2022/04/14 07:32:52;;;;;;;6.30;5.50;;;14.60;99.90;;;;;;5049010;28;20170;-56
2022/04/14 07:35:21;;;;;;;5.60;5.10;;;14.80;99.90;;;;;;5049256;28;20173;-57
2022/04/14 07:37:48;;;;;;;5.80;5.20;;;14.90;99.90;;;;;;5049256;28;20236;-57
2022/04/14 07:40:14;;;;;;;6.50;5.80;;;15.00;99.90;;;;;;5050185;28;20203;-54
2022/04/14 07:42:42;;;;;;;6.77;5.43;;;15.10;99.90;;;;;;5051696;28;20181;-57
2022/04/14 07:45:10;;;;;;;6.43;5.60;;;15.10;99.90;;;;;;5054675;28;20166;-56
2022/04/14 07:47:36;;;;;;;6.00;5.40;;;15.00;99.90;;;;;;5054475;28;20718;-55
2022/04/14 07:50:02;;;;;;;8.53;6.00;;;15.00;99.90;;;;;;5054595;28;20175;-56
2022/04/14 07:52:28;;;;;;;7.47;5.70;;;15.10;99.90;;;;;;5054340;28;20202;-59
2022/04/14 07:54:54;;;;;;;7.00;6.30;;;15.30;99.90;;;;;;5054462;28;20203;-57
2022/04/14 07:57:19;;;;;;;10.67;6.10;;;15.30;99.90;;;;;;5054379;28;20195;-58
2022/04/14 07:59:45;;;;;;;9.07;6.27;;;15.20;99.90;;;;;;5054316;28;20191;-55
2022/04/14 08:02:11;;;;;;;6.67;6.00;;;15.30;99.90;;;;;;5054093;28;20536;-57
2022/04/14 08:04:38;;;;;;;9.10;6.67;;;15.40;99.90;;;;;;5054090;28;20171;-58
2022/04/14 08:07:04;;;;;;;8.03;6.60;;;15.50;99.90;;;;;;5054217;28;20190;-57
2022/04/14 08:09:29;;;;;;;8.23;6.50;;;15.60;99.90;;;;;;5054143;28;20179;-58
2022/04/14 08:11:55;;;;;;;7.00;6.30;;;15.80;99.90;;;;;;5054075;28;20175;-59
2022/04/14 08:14:20;;;;;;;9.33;5.80;;;15.90;99.90;;;;;;5053874;28;20656;-58
2022/04/14 08:16:46;;;;;;;6.80;6.10;;;15.90;99.90;;;;;;5053982;28;20227;-58
2022/04/14 08:19:12;;;;;;;6.83;6.13;;;16.00;99.90;;;;;;5053797;28;20237;-56
2022/04/14 08:21:37;;;;;;;7.67;6.80;;;16.20;99.90;;;;;;5053996;28;20222;-58
2022/04/14 08:24:03;;;;;;;7.33;6.17;;;16.20;99.90;;;;;;5053556;28;20167;-55
2022/04/14 08:26:28;;;;;;;6.90;6.30;;;16.30;99.90;;;;;;5053789;28;20167;-56
2022/04/14 08:28:55;;;;;;;7.77;6.97;;;16.50;99.90;;;;;;5036684;28;20199;-58
2022/04/14 08:31:22;;;;;;;7.50;6.70;;;16.70;99.90;;;;;;5033705;28;20172;-58
2022/04/14 08:33:51;;;;;;;7.23;6.53;;;16.90;99.90;;;;;;5032789;28;20199;-58
2022/04/14 08:36:17;;;;;;;8.93;8.03;;;16.80;99.90;;;;;;5034213;28;20542;-58
2022/04/14 08:38:45;;;;;;;9.30;8.40;;;17.20;99.90;;;;;;5034012;28;20234;-52
2022/04/14 08:41:13;;;;;;;8.50;7.70;;;16.80;99.90;;;;;;5032268;28;20215;-53
2022/04/14 08:43:46;;;;;;;9.10;7.83;;;16.90;99.90;;;;;;5033704;28;20179;-57
2022/04/14 08:46:14;;;;;;;7.70;6.80;;;17.00;99.90;;;;;;5028016;28;20176;-58
2022/04/14 08:48:40;;;;;;;9.33;7.50;;;17.30;99.90;;;;;;5029947;28;20267;-58
2022/04/14 08:51:08;;;;;;;12.73;7.43;;;17.50;99.90;;;;;;5033431;28;20222;-58
2022/04/14 08:53:35;;;;;;;9.10;7.77;;;17.60;99.90;;;;;;5031311;28;20221;-54
2022/04/14 08:56:03;;;;;;;8.20;7.40;;;17.60;99.40;;;;;;5033996;28;20186;-57
2022/04/14 08:58:29;;;;;;;8.63;7.13;;;17.70;99.90;;;;;;5038611;28;20209;-54
2022/04/14 09:00:55;;;;;;;7.17;6.47;;;17.80;99.50;;;;;;5042600;28;20231;-58
2022/04/14 09:03:21;;;;;;;7.80;7.10;;;18.00;99.00;;;;;;5050884;28;20178;-54
2022/04/14 09:05:46;;;;;;;8.27;7.47;;;18.10;98.60;;;;;;5039844;28;20555;-56
2022/04/14 09:08:12;;;;;;;7.73;7.03;;;18.30;98.20;;;;;;5031664;28;20227;-54
2022/04/14 09:10:39;;;;;;;8.20;6.80;;;18.30;98.40;;;;;;5048327;28;20701;-55
2022/04/14 09:13:05;;;;;;;7.90;7.13;;;18.50;98.00;;;;;;5038730;28;20569;-52
2022/04/14 09:15:30;;;;;;;8.37;7.37;;;18.60;98.60;;;;;;5036336;28;20180;-55
2022/04/14 09:17:56;;;;;;;8.00;7.17;;;18.70;99.20;;;;;;5031781;28;20210;-58
2022/04/14 09:20:34;;;;;;;7.70;7.00;;;18.70;98.80;;;;;;5032399;28;20616;-60
2022/04/14 09:23:25;;;;;;;7.63;6.83;;;18.60;98.80;;;;;;5031959;28;20230;-58
2022/04/14 09:26:03;;;;;;;7.37;6.23;;;19.20;98.20;;;;;;5034732;28;20210;-57
2022/04/14 09:28:28;;;;;;;7.87;7.07;;;18.60;99.10;;;;;;5033596;28;20192;-55
2022/04/14 09:31:08;;;;;;;8.50;6.97;;;18.70;98.70;;;;;;5032970;28;20176;-58
2022/04/14 09:33:35;;;;;;;8.63;7.73;;;18.90;99.10;;;;;;5031197;28;20771;-53
2022/04/14 09:36:09;;;;;;;8.40;7.17;;;19.10;99.90;;;;;;5032439;28;20542;-50
2022/04/14 09:38:59;;;;;;;8.43;7.27;;;19.30;98.60;;;;;;5031928;28;20195;-50
2022/04/14 09:41:39;;;;;;;7.83;7.13;;;19.50;97.50;;;;;;5035653;28;20176;-54
2022/04/14 09:44:13;;;;;;;9.13;7.00;;;19.50;98.90;;;;;;5033110;28;20176;-51
2022/04/14 09:46:42;;;;;;;8.67;7.17;;;19.40;97.80;;;;;;5046462;28;20230;-50
2022/04/14 09:49:10;;;;;;;8.63;7.50;;;19.10;97.90;;;;;;5036118;28;20213;-51
2022/04/14 09:51:46;;;;;;;10.23;7.77;;;19.10;97.50;;;;;;5048173;28;20208;-52
2022/04/14 09:54:26;;;;;;;9.57;6.93;;;19.20;98.20;;;;;;5029178;28;20203;-55
2022/04/14 09:56:57;;;;;;;8.50;7.63;;;19.30;98.80;;;;;;5032728;28;20200;-55
2022/04/14 09:59:24;;;;;;;7.80;7.00;;;19.40;98.60;;;;;;5032945;28;20230;-54
2022/04/14 10:02:17;;;;;;;8.33;7.50;;;19.50;99.90;;;;;;5029329;28;20171;-59
2022/04/14 10:04:44;;;;;;;8.73;7.53;;;19.70;98.80;;;;;;5024091;28;20630;-54
2022/04/14 10:07:19;;;;;;;8.63;7.83;;;19.70;96.80;;;;;;5028144;28;20690;-56
2022/04/14 10:09:50;;;;;;;8.87;7.03;;;19.80;97.50;;;;;;5031468;28;20175;-53
2022/04/14 10:12:16;;;;;;;8.90;7.20;;;19.60;98.00;;;;;;5031501;28;20168;-55
2022/04/14 10:14:42;;;;;;;7.97;7.10;;;19.70;96.40;;;;;;5031758;28;20584;-55
2022/04/14 10:17:09;;;;;;;7.77;6.60;;;19.70;97.60;;;;;;5031980;28;20192;-57
2022/04/14 10:19:36;;;;;;;7.90;7.10;;;19.80;96.40;;;;;;5031761;28;20196;-58
2022/04/14 10:22:04;;;;;;;8.03;7.23;;;20.00;95.30;;;;;;5031697;28;20168;-58
2022/04/14 10:24:33;;;;;;;8.27;6.97;;;20.40;96.40;;;;;;5031697;28;20172;-56
2022/04/14 10:27:00;;;;;;;11.40;7.17;;;20.80;95.60;;;;;;5031848;28;20191;-56
2022/04/14 10:29:27;;;;;;;7.50;6.70;;;20.80;94.60;;;;;;5033052;28;20164;-58
2022/04/14 10:31:54;;;;;;;7.45;6.75;;;20.60;94.80;;;;;;5031807;28;20179;-57
2022/04/14 10:34:21;;;;;;;7.13;6.43;;;20.60;95.70;;;;;;5031500;28;20172;-53
2022/04/14 10:36:48;;;;;;;10.05;7.53;;;20.70;96.30;;;;;;5031746;28;20193;-55
2022/04/14 10:39:14;;;;;;;7.40;6.72;;;21.00;94.00;;;;;;5031529;28;20191;-56
2022/04/14 10:41:46;;;;;;;11.68;7.43;;;21.20;95.20;;;;;;5031487;28;20184;-57
2022/04/14 10:44:13;;;;;;;7.55;6.85;;;21.50;95.10;;;;;;5031465;28;20604;-54
2022/04/14 10:46:41;;;;;;;6.07;5.57;;;21.60;93.60;;;;;;5031487;28;20171;-57
2022/04/14 10:49:14;;;;;;;9.13;6.78;;;22.00;95.40;;;;;;5031682;28;20224;-56
2022/04/14 10:51:40;;;;;;;9.32;6.60;;;22.00;93.30;;;;;;5031499;28;20206;-56
2022/04/14 10:54:11;;;;;;;7.30;6.60;;;22.00;93.00;;;;;;5031422;28;20179;-56
2022/04/14 10:56:37;;;;;;;6.85;6.25;;;22.20;92.20;;;;;;5031697;28;20171;-55
2022/04/14 10:59:11;;;;;;;11.80;6.38;;;22.50;92.20;;;;;;5031605;28;20253;-56
2022/04/14 11:01:46;;;;;;;8.65;6.03;;;22.60;92.00;;;;;;5031546;28;20583;-57
2022/04/14 11:04:41;;;;;;;7.63;6.88;;;22.60;91.00;;;;;;5031195;28;20179;-56
2022/04/14 11:07:15;;;;;;;8.02;7.20;;;22.40;92.20;;;;;;5031508;28;20196;-57
2022/04/14 11:09:51;;;;;;;6.75;6.13;;;22.30;92.20;;;;;;5036461;28;20179;-57
2022/04/14 11:12:19;;;;;;;6.97;6.10;;;22.40;93.90;;;;;;5051048;28;20210;-57
2022/04/14 11:14:49;;;;;;;8.73;7.03;;;22.60;92.40;;;;;;5051374;28;20179;-55
2022/04/14 11:17:48;;;;;;;5.97;5.45;;;23.00;92.30;;;;;;5051278;28;20187;-55
2022/04/14 11:20:46;;;;;;;6.15;5.10;;;23.10;91.20;;;;;;5055111;28;20664;-58
2022/04/14 11:23:17;;;;;;;7.35;5.57;;;23.20;90.40;;;;;;5054517;28;20182;-58
2022/04/14 11:25:44;;;;;;;7.10;6.40;;;23.80;86.70;;;;;;5040095;28;20210;-57
2022/04/14 11:28:30;;;;;;;7.55;6.68;;;23.70;90.30;;;;;;5024621;28;20192;-54
2022/04/14 11:30:56;;;;;;;5.80;5.20;;;23.70;90.30;;;;;;5024709;28;20179;-56
2022/04/14 11:33:22;;;;;;;5.30;4.80;;;23.60;90.00;;;;;;5029860;28;20188;-58
2022/04/14 11:35:48;;;;;;;4.75;4.35;;;23.70;88.20;;;;;;5034905;28;20172;-57
2022/04/14 11:38:52;;;;;;;7.55;5.07;;;23.80;84.20;;;;;;5034478;28;20254;-52
2022/04/14 11:41:43;;;;;;;7.70;5.10;;;23.70;84.20;;;;;;5039315;28;20545;-55
2022/04/14 11:44:14;;;;;;;7.25;5.10;;;23.80;85.20;;;;;;5031593;28;20299;-57
2022/04/14 11:46:43;;;;;;;6.43;5.07;;;24.00;83.20;;;;;;5038109;28;20267;-58
2022/04/14 11:49:10;;;;;;;8.30;5.32;;;24.10;83.80;;;;;;5036012;28;20203;-57
2022/04/14 11:51:44;;;;;;;6.15;5.55;;;24.30;85.60;;;;;;5034603;28;20179;-55
2022/04/14 11:54:10;;;;;;;6.45;5.80;;;24.50;83.20;;;;;;5039357;28;20190;-55
2022/04/14 11:56:36;;;;;;;6.00;5.07;;;25.00;84.40;;;;;;5032965;28;20649;-57
2022/04/14 11:59:02;;;;;;;5.72;5.18;;;25.50;79.40;;;;;;5034431;28;20325;-57
2022/04/14 12:01:28;;;;;;;4.90;4.40;;;25.90;81.20;;;;;;5033370;28;20183;-57
2022/04/14 12:03:53;;;;;;;6.50;4.75;;;26.40;83.10;;;;;;5033611;28;20168;-57
2022/04/14 12:06:19;;;;;;;5.93;4.47;;;26.80;75.20;;;;;;5033573;28;20196;-58
2022/04/14 12:08:56;;;;;;;4.68;4.28;;;27.90;72.70;;;;;;5034238;28;20195;-58
2022/04/14 12:11:24;;;;;;;7.63;4.60;;;28.50;73.50;;;;;;5034216;28;20168;-58
2022/04/14 12:13:49;;;;;;;5.22;4.72;;;28.30;71.80;;;;;;5033897;28;20176;-58
2022/04/14 12:16:15;;;;;;;5.40;4.63;;;27.50;71.10;;;;;;5034112;28;20184;-56
2022/04/14 12:18:49;;;;;;;5.95;4.35;;;27.30;72.30;;;;;;5033880;28;20234;-59
2022/04/14 12:21:22;;;;;;;6.53;5.20;;;27.20;72.90;;;;;;5034198;28;20168;-58
2022/04/14 12:23:50;;;;;;;7.32;4.57;;;27.50;72.40;;;;;;5033777;28;20175;-57
2022/04/14 12:26:17;;;;;;;6.97;5.30;;;27.50;69.80;;;;;;5034199;28;20534;-58
2022/04/14 12:28:44;;;;;;;6.63;4.78;;;27.40;69.80;;;;;;5033476;28;20188;-56
2022/04/14 12:31:11;;;;;;;7.60;5.07;;;26.90;70.40;;;;;;5033931;28;20522;-55
2022/04/14 12:33:37;;;;;;;6.15;5.05;;;26.40;72.50;;;;;;5033515;28;20165;-57
2022/04/14 12:36:07;;;;;;;7.35;5.25;;;26.10;71.90;;;;;;5033791;28;20180;-57
2022/04/14 12:38:45;;;;;;;8.77;6.10;;;25.80;73.60;;;;;;5033647;28;20192;-56
2022/04/14 12:41:17;;;;;;;10.32;5.80;;;25.50;73.60;;;;;;5033740;28;20180;-56
2022/04/14 12:43:46;;;;;;;6.30;5.28;;;25.00;72.50;;;;;;5033305;28;20173;-53
2022/04/14 12:46:39;;;;;;;6.72;5.18;;;24.90;75.10;;;;;;5033834;28;20182;-53
2022/04/14 12:49:09;;;;;;;7.97;5.53;;;24.60;78.00;;;;;;5033330;28;20187;-54